Time;durP1;ratioP1;P1;durP2;ratioP2;P2;SDS_P1;SDS_P2;PMS_P1;PMS_P2;Temp;Humidity;BMP_temperature;BMP_pressure;BME280_temperature;BME280_humidity;BME280_pressure;Samples;Min_cycle;Max_cycle;Signal;HPM_P1;HPM_P2
2022/07/26 00:02:14;;;;;;;16.80;11.68;;;;;;;;;;5013084;28;20022;-61
2022/07/26 00:04:40;;;;;;;20.15;11.48;;;;;;;;;;5011658;28;20029;-61
2022/07/26 00:07:06;;;;;;;17.75;11.40;;;;;;;;;;5012850;28;20033;-64
2022/07/26 00:09:32;;;;;;;17.08;11.35;;;;;;;;;;5012570;28;20030;-61
2022/07/26 00:11:58;;;;;;;18.98;11.70;;;;;;;;;;5012733;28;20379;-60
2022/07/26 00:14:24;;;;;;;22.60;12.18;;;;;;;;;;5012575;28;20029;-60
2022/07/26 00:16:50;;;;;;;20.60;11.98;;;;;;;;;;5012829;28;20053;-59
2022/07/26 00:19:17;;;;;;;19.90;12.10;;;;;;;;;;5012519;28;20109;-61
2022/07/26 00:21:43;;;;;;;21.13;12.60;;;;;;;;;;5012822;28;20529;-60
2022/07/26 00:24:09;;;;;;;21.20;12.57;;;;;;;;;;5012527;28;20057;-62
2022/07/26 00:26:35;;;;;;;21.30;11.90;;;;;;;;;;5012454;28;20033;-60
2022/07/26 00:29:03;;;;;;;18.85;12.35;;;;;;;;;;5012548;28;20018;-59
2022/07/26 00:31:29;;;;;;;21.37;12.27;;;;;;;;;;5012709;28;20114;-63
2022/07/26 00:33:55;;;;;;;18.02;12.43;;;;;;;;;;5012427;28;20029;-60
2022/07/26 00:36:21;;;;;;;17.95;11.73;;;;;;;;;;5012534;28;20045;-60
2022/07/26 00:38:47;;;;;;;20.27;12.35;;;;;;;;;;5010870;28;20060;-60
2022/07/26 00:41:13;;;;;;;18.52;12.00;;;;;;;;;;5011385;28;20018;-61
2022/07/26 00:43:52;;;;;;;19.95;12.57;;;;;;;;;;5012322;28;20053;-57
2022/07/26 00:46:18;;;;;;;22.60;12.82;;;;;;;;;;5012420;28;20395;-59
2022/07/26 00:48:44;;;;;;;20.25;12.25;;;;;;;;;;5012182;28;20014;-59
2022/07/26 00:51:10;;;;;;;19.73;12.10;;;;;;;;;;5012368;28;20084;-60
2022/07/26 00:53:36;;;;;;;23.25;13.20;;;;;;;;;;5011948;28;20025;-58
2022/07/26 00:56:02;;;;;;;19.45;11.93;;;;;;;;;;5012323;28;20034;-60
2022/07/26 00:58:28;;;;;;;20.67;12.45;;;;;;;;;;5012037;28;20069;-58
2022/07/26 01:00:54;;;;;;;20.42;12.13;;;;;;;;;;5011926;28;20050;-60
2022/07/26 01:03:20;;;;;;;18.92;12.70;;;;;;;;;;5010936;28;20490;-61
2022/07/26 01:05:47;;;;;;;18.83;12.30;;;;;;;;;;5012097;28;20030;-59
2022/07/26 01:08:13;;;;;;;20.10;12.45;;;;;;;;;;5012183;28;20025;-61
2022/07/26 01:10:39;;;;;;;20.58;12.52;;;;;;;;;;5014489;28;20077;-59
2022/07/26 01:13:05;;;;;;;24.98;12.80;;;;;;;;;;5015983;28;20049;-59
2022/07/26 01:15:31;;;;;;;21.73;12.10;;;;;;;;;;5014685;28;20111;-61
2022/07/26 01:17:57;;;;;;;17.42;11.90;;;;;;;;;;5015690;28;20482;-61
2022/07/26 01:20:23;;;;;;;18.15;11.88;;;;;;;;;;5015540;28;20478;-61
2022/07/26 01:22:49;;;;;;;18.35;12.57;;;;;;;;;;5015879;28;20394;-57
2022/07/26 01:25:15;;;;;;;19.92;12.38;;;;;;;;;;5014513;28;20026;-57
2022/07/26 01:27:42;;;;;;;16.45;11.45;;;;;;;;;;5014021;28;20026;-61
2022/07/26 01:30:09;;;;;;;16.58;11.88;;;;;;;;;;5015845;28;20113;-61
2022/07/26 01:32:35;;;;;;;19.55;11.77;;;;;;;;;;5015687;28;20037;-61
2022/07/26 01:35:01;;;;;;;18.85;12.23;;;;;;;;;;5014234;28;20097;-61
2022/07/26 01:37:27;;;;;;;20.13;11.95;;;;;;;;;;5015532;28;20105;-61
2022/07/26 01:39:53;;;;;;;16.48;11.82;;;;;;;;;;5014393;28;20080;-60
2022/07/26 01:42:19;;;;;;;18.08;11.75;;;;;;;;;;5014270;28;20061;-61
2022/07/26 01:44:45;;;;;;;17.25;12.73;;;;;;;;;;5015485;28;20113;-62
2022/07/26 01:47:11;;;;;;;17.10;11.70;;;;;;;;;;5014763;28;20390;-58
2022/07/26 01:49:37;;;;;;;20.02;11.27;;;;;;;;;;5015068;28;20033;-60
2022/07/26 01:52:03;;;;;;;18.67;11.73;;;;;;;;;;5015617;28;20367;-60
2022/07/26 01:54:29;;;;;;;17.13;12.15;;;;;;;;;;5016522;28;20579;-58
2022/07/26 01:56:55;;;;;;;18.23;11.68;;;;;;;;;;5015271;28;20021;-60
2022/07/26 01:59:21;;;;;;;17.45;12.20;;;;;;;;;;5014898;28;20030;-60
2022/07/26 02:01:47;;;;;;;17.92;11.57;;;;;;;;;;5015134;28;20027;-60
2022/07/26 02:04:58;;;;;;;18.40;12.35;;;;;;;;;;5015078;28;20030;-61
2022/07/26 02:06:59;;;;;;;18.20;12.38;;;;;;;;;;5011483;28;20026;-62
2022/07/26 02:09:25;;;;;;;19.20;13.15;;;;;;;;;;5013929;28;20072;-60
2022/07/26 02:11:51;;;;;;;16.70;13.50;;;;;;;;;;5015115;28;20030;-63
2022/07/26 02:14:17;;;;;;;20.50;12.77;;;;;;;;;;5015152;28;20018;-60
2022/07/26 02:16:43;;;;;;;20.55;12.65;;;;;;;;;;5015235;28;20032;-60
2022/07/26 02:19:09;;;;;;;17.13;12.43;;;;;;;;;;5013497;28;20030;-60
2022/07/26 02:21:35;;;;;;;18.98;12.50;;;;;;;;;;5013932;28;20030;-62
2022/07/26 02:24:02;;;;;;;18.92;12.55;;;;;;;;;;5014844;28;20259;-60
2022/07/26 02:26:28;;;;;;;19.73;12.43;;;;;;;;;;5014770;28;20057;-61
2022/07/26 02:28:54;;;;;;;19.48;12.52;;;;;;;;;;5014568;28;20069;-58
2022/07/26 02:31:20;;;;;;;18.58;12.45;;;;;;;;;;5014639;28;20029;-60
2022/07/26 02:33:46;;;;;;;19.45;12.98;;;;;;;;;;5014483;28;20033;-61
2022/07/26 02:36:12;;;;;;;20.02;12.85;;;;;;;;;;5014567;28;20026;-61
2022/07/26 02:38:38;;;;;;;21.27;12.48;;;;;;;;;;5012968;28;20105;-61
2022/07/26 02:41:05;;;;;;;19.55;13.23;;;;;;;;;;5014382;28;20029;-61
2022/07/26 02:43:31;;;;;;;17.55;12.50;;;;;;;;;;5014556;28;20034;-57
2022/07/26 02:45:57;;;;;;;18.25;12.25;;;;;;;;;;5014268;28;20516;-60
2022/07/26 02:48:23;;;;;;;19.40;12.57;;;;;;;;;;5013919;28;20157;-59
2022/07/26 02:50:49;;;;;;;17.92;12.57;;;;;;;;;;5012979;28;20506;-61
2022/07/26 02:53:15;;;;;;;23.05;13.55;;;;;;;;;;5012958;28;20025;-59
2022/07/26 02:55:41;;;;;;;17.55;12.50;;;;;;;;;;5013920;28;20034;-59
2022/07/26 02:58:07;;;;;;;18.02;13.02;;;;;;;;;;5013886;28;20034;-58
2022/07/26 03:00:33;;;;;;;16.25;12.70;;;;;;;;;;5013963;28;20552;-59
2022/07/26 03:02:59;;;;;;;18.98;12.60;;;;;;;;;;5014132;28;20037;-59
2022/07/26 03:05:25;;;;;;;18.88;13.15;;;;;;;;;;5013931;28;20104;-59
2022/07/26 03:07:51;;;;;;;21.48;13.98;;;;;;;;;;5013518;28;20545;-60
2022/07/26 03:10:17;;;;;;;21.33;12.90;;;;;;;;;;5013358;28;20030;-59
2022/07/26 03:12:44;;;;;;;20.38;13.57;;;;;;;;;;5012559;28;20554;-58
2022/07/26 03:15:10;;;;;;;23.23;13.70;;;;;;;;;;5013763;28;20026;-60
2022/07/26 03:17:36;;;;;;;21.08;14.07;;;;;;;;;;5012166;28;20057;-57
2022/07/26 03:20:03;;;;;;;19.38;14.30;;;;;;;;;;5013768;28;20030;-60
2022/07/26 03:22:29;;;;;;;20.63;14.02;;;;;;;;;;5012600;28;20516;-60
2022/07/26 03:24:55;;;;;;;17.45;13.63;;;;;;;;;;5013520;28;20029;-59
2022/07/26 03:27:21;;;;;;;18.15;14.05;;;;;;;;;;5013112;28;20030;-59
2022/07/26 03:29:47;;;;;;;19.55;12.60;;;;;;;;;;5013521;28;20025;-60
2022/07/26 03:32:13;;;;;;;20.27;13.52;;;;;;;;;;5013308;28;20021;-60
2022/07/26 03:34:39;;;;;;;22.55;13.60;;;;;;;;;;5013404;28;20022;-59
2022/07/26 03:37:05;;;;;;;26.52;13.30;;;;;;;;;;5013285;28;20372;-60
2022/07/26 03:39:31;;;;;;;21.20;13.93;;;;;;;;;;5013216;28;20030;-59
2022/07/26 03:41:57;;;;;;;19.55;14.05;;;;;;;;;;5011916;28;20057;-58
2022/07/26 03:44:23;;;;;;;21.58;14.05;;;;;;;;;;5013143;28;20037;-61
2022/07/26 03:46:49;;;;;;;21.02;13.77;;;;;;;;;;5013067;28;20033;-62
2022/07/26 03:49:15;;;;;;;26.30;14.27;;;;;;;;;;5013050;28;20068;-60
2022/07/26 03:51:41;;;;;;;25.48;14.00;;;;;;;;;;5011903;28;20022;-60
2022/07/26 03:54:06;;;;;;;20.67;13.50;;;;;;;;;;5013083;28;20022;-61
2022/07/26 03:56:33;;;;;;;22.23;12.90;;;;;;;;;;5011641;28;20034;-61
2022/07/26 03:59:04;;;;;;;22.65;13.65;;;;;;;;;;5012928;28;20018;-58
2022/07/26 04:01:30;;;;;;;23.02;13.60;;;;;;;;;;5012924;28;20041;-60
2022/07/26 04:03:56;;;;;;;18.17;13.30;;;;;;;;;;5011640;28;20112;-61
2022/07/26 04:06:22;;;;;;;24.10;14.77;;;;;;;;;;5012890;28;20490;-61
2022/07/26 04:08:48;;;;;;;19.58;13.73;;;;;;;;;;5011437;28;20029;-61
2022/07/26 04:11:14;;;;;;;25.33;13.88;;;;;;;;;;5012675;28;20026;-59
2022/07/26 04:13:41;;;;;;;18.10;12.90;;;;;;;;;;5012721;28;20026;-61
2022/07/26 04:16:07;;;;;;;23.02;14.15;;;;;;;;;;5012614;28;20022;-61
2022/07/26 04:18:33;;;;;;;19.42;13.25;;;;;;;;;;5012579;28;20033;-59
2022/07/26 04:20:59;;;;;;;18.75;13.32;;;;;;;;;;5012860;28;20535;-60
2022/07/26 04:23:25;;;;;;;20.58;13.95;;;;;;;;;;5012370;28;20037;-60
2022/07/26 04:25:51;;;;;;;21.73;13.93;;;;;;;;;;5012493;28;20026;-59
2022/07/26 04:28:17;;;;;;;20.60;14.60;;;;;;;;;;5010837;28;20049;-60
2022/07/26 04:30:43;;;;;;;19.08;14.20;;;;;;;;;;5011958;28;20073;-58
2022/07/26 04:33:09;;;;;;;20.80;14.30;;;;;;;;;;5012074;28;20046;-58
2022/07/26 04:35:35;;;;;;;24.50;15.00;;;;;;;;;;5012092;28;20023;-62
2022/07/26 04:38:02;;;;;;;18.23;14.05;;;;;;;;;;5011702;28;20030;-60
2022/07/26 04:40:32;;;;;;;21.25;14.88;;;;;;;;;;5012284;28;20161;-57
2022/07/26 04:42:58;;;;;;;19.48;14.63;;;;;;;;;;5010654;28;20106;-57
2022/07/26 04:45:24;;;;;;;21.83;15.45;;;;;;;;;;5015776;28;20366;-62
2022/07/26 04:47:50;;;;;;;20.58;15.00;;;;;;;;;;5021567;28;20350;-59
2022/07/26 04:50:20;;;;;;;21.52;14.30;;;;;;;;;;5020539;28;20022;-61
2022/07/26 04:52:47;;;;;;;22.23;14.82;;;;;;;;;;5011975;28;20018;-61
2022/07/26 04:55:14;;;;;;;23.75;13.80;;;;;;;;;;5028687;28;20123;-58
2022/07/26 04:57:40;;;;;;;22.17;14.73;;;;;;;;;;5031382;28;20030;-61
2022/07/26 05:00:07;;;;;;;20.90;14.93;;;;;;;;;;5031884;28;20080;-61
2022/07/26 05:02:33;;;;;;;20.80;15.10;;;;;;;;;;5024840;28;20033;-61
2022/07/26 05:04:59;;;;;;;21.70;14.60;;;;;;;;;;5012087;28;20022;-60
2022/07/26 05:07:25;;;;;;;20.45;14.60;;;;;;;;;;5011908;28;20022;-56
2022/07/26 05:09:51;;;;;;;23.50;15.68;;;;;;;;;;5011293;28;20072;-57
2022/07/26 05:12:18;;;;;;;22.65;15.07;;;;;;;;;;5012125;28;20022;-58
2022/07/26 05:14:44;;;;;;;20.05;14.55;;;;;;;;;;5012066;28;20022;-56
2022/07/26 05:17:10;;;;;;;22.40;14.82;;;;;;;;;;5011586;28;20390;-62
2022/07/26 05:19:36;;;;;;;19.63;14.70;;;;;;;;;;5018456;28;20034;-61
2022/07/26 05:22:02;;;;;;;22.80;14.93;;;;;;;;;;5031703;28;20500;-64
2022/07/26 05:24:28;;;;;;;22.70;15.70;;;;;;;;;;5031024;28;20432;-63
2022/07/26 05:26:54;;;;;;;22.35;14.70;;;;;;;;;;5031157;28;20470;-63
2022/07/26 05:29:20;;;;;;;20.38;15.00;;;;;;;;;;5031156;28;20033;-62
2022/07/26 05:31:46;;;;;;;19.42;14.52;;;;;;;;;;5031349;28;20029;-63
2022/07/26 05:34:13;;;;;;;24.50;14.45;;;;;;;;;;5031329;28;20029;-61
2022/07/26 05:36:39;;;;;;;22.65;15.80;;;;;;;;;;5030182;28;20510;-62
2022/07/26 05:39:05;;;;;;;23.33;15.30;;;;;;;;;;5030769;28;20112;-63
2022/07/26 05:41:31;;;;;;;23.15;15.32;;;;;;;;;;5031153;28;20109;-62
2022/07/26 05:43:57;;;;;;;25.27;15.80;;;;;;;;;;5030790;28;20029;-62
2022/07/26 05:46:23;;;;;;;23.50;15.38;;;;;;;;;;5030972;28;20032;-62
2022/07/26 05:48:49;;;;;;;21.45;14.38;;;;;;;;;;5030909;28;20020;-62
2022/07/26 05:51:15;;;;;;;21.98;15.40;;;;;;;;;;5031148;28;20104;-62
2022/07/26 05:53:41;;;;;;;23.30;15.48;;;;;;;;;;5031072;28;20026;-59
2022/07/26 05:56:07;;;;;;;22.17;14.38;;;;;;;;;;5032601;28;20087;-62
2022/07/26 05:58:33;;;;;;;19.00;14.05;;;;;;;;;;5034239;28;20486;-62
2022/07/26 06:00:59;;;;;;;19.48;14.30;;;;;;;;;;5034739;28;20029;-62
2022/07/26 06:03:25;;;;;;;25.00;14.25;;;;;;;;;;5035092;28;20017;-62
2022/07/26 06:05:56;;;;;;;22.45;13.68;;;;;;;;;;5034766;28;20448;-60
2022/07/26 06:08:22;;;;;;;20.27;14.32;;;;;;;;;;5034448;28;20033;-61
2022/07/26 06:10:48;;;;;;;21.27;14.98;;;;;;;;;;5033925;28;20017;-62
2022/07/26 06:13:14;;;;;;;20.65;14.27;;;;;;;;;;5031098;28;20017;-61
2022/07/26 06:15:41;;;;;;;23.10;14.20;;;;;;;;;;5023464;28;20045;-60
2022/07/26 06:18:08;;;;;;;18.45;14.40;;;;;;;;;;5023250;28;20110;-62
2022/07/26 06:20:34;;;;;;;20.08;14.77;;;;;;;;;;5021115;28;20036;-62
2022/07/26 06:23:00;;;;;;;19.45;14.57;;;;;;;;;;5014636;28;20021;-60
2022/07/26 06:25:26;;;;;;;20.08;14.40;;;;;;;;;;5014197;28;20034;-60
2022/07/26 06:27:53;;;;;;;21.02;14.77;;;;;;;;;;5013492;28;20034;-61
2022/07/26 06:30:19;;;;;;;20.88;14.90;;;;;;;;;;5014257;28;20022;-64
2022/07/26 06:32:45;;;;;;;21.80;14.82;;;;;;;;;;5014140;28;20022;-62
2022/07/26 06:35:12;;;;;;;22.83;14.88;;;;;;;;;;5014296;28;20104;-64
2022/07/26 06:37:38;;;;;;;21.38;14.55;;;;;;;;;;5012698;28;20026;-63
2022/07/26 06:40:08;;;;;;;18.33;15.13;;;;;;;;;;5012790;28;20026;-61
2022/07/26 06:42:34;;;;;;;21.52;14.60;;;;;;;;;;5013897;28;20483;-62
2022/07/26 06:45:01;;;;;;;23.88;16.25;;;;;;;;;;5013982;28;20040;-64
2022/07/26 06:47:27;;;;;;;23.10;15.38;;;;;;;;;;5025392;28;20029;-56
2022/07/26 06:49:54;;;;;;;20.35;15.45;;;;;;;;;;5033917;28;20021;-63
2022/07/26 06:52:21;;;;;;;25.23;16.52;;;;;;;;;;5032386;28;20032;-64
2022/07/26 06:54:47;;;;;;;21.38;15.45;;;;;;;;;;5033941;28;20021;-63
2022/07/26 06:57:13;;;;;;;21.73;15.15;;;;;;;;;;5033293;28;20041;-64
2022/07/26 06:59:39;;;;;;;21.02;15.60;;;;;;;;;;5033546;28;20033;-64
2022/07/26 07:02:05;;;;;;;20.73;14.40;;;;;;;;;;5033458;28;20021;-64
2022/07/26 07:04:32;;;;;;;20.63;15.07;;;;;;;;;;5033676;28;20462;-63
2022/07/26 07:07:03;;;;;;;23.80;15.38;;;;;;;;;;5033090;28;20474;-64
2022/07/26 07:09:30;;;;;;;22.23;15.70;;;;;;;;;;5034843;28;20018;-63
2022/07/26 07:11:56;;;;;;;22.90;16.15;;;;;;;;;;5036725;28;20036;-62
2022/07/26 07:14:22;;;;;;;23.17;16.25;;;;;;;;;;5039136;28;20022;-63
2022/07/26 07:16:48;;;;;;;23.73;15.52;;;;;;;;;;5032759;28;20048;-64
2022/07/26 07:19:14;;;;;;;20.63;15.00;;;;;;;;;;5033731;28;20394;-63
2022/07/26 07:21:40;;;;;;;23.08;16.23;;;;;;;;;;5033291;28;20017;-63
2022/07/26 07:24:06;;;;;;;20.25;16.20;;;;;;;;;;5031997;28;20036;-63
2022/07/26 07:26:32;;;;;;;21.38;16.65;;;;;;;;;;5033059;28;20036;-63
2022/07/26 07:28:58;;;;;;;21.50;15.80;;;;;;;;;;5034317;28;20100;-61
2022/07/26 07:31:25;;;;;;;21.63;15.30;;;;;;;;;;5033027;28;20043;-63
2022/07/26 07:33:51;;;;;;;21.67;15.77;;;;;;;;;;5033057;28;20470;-63
2022/07/26 07:36:17;;;;;;;23.08;15.65;;;;;;;;;;5033278;28;20391;-63
2022/07/26 07:38:46;;;;;;;23.23;15.35;;;;;;;;;;5031230;28;20490;-64
2022/07/26 07:41:12;;;;;;;19.48;15.40;;;;;;;;;;5032801;28;20052;-61
2022/07/26 07:43:38;;;;;;;21.10;14.80;;;;;;;;;;5032851;28;20398;-63
2022/07/26 07:46:05;;;;;;;20.90;15.13;;;;;;;;;;5032689;28;20025;-63
2022/07/26 07:48:31;;;;;;;19.75;14.80;;;;;;;;;;5032632;28;20109;-62
2022/07/26 07:50:57;;;;;;;19.35;14.38;;;;;;;;;;5032837;28;20032;-62
2022/07/26 07:53:23;;;;;;;21.15;15.10;;;;;;;;;;5032829;28;20022;-58
2022/07/26 07:55:49;;;;;;;20.85;14.43;;;;;;;;;;5032001;28;20425;-64
2022/07/26 07:58:16;;;;;;;17.88;14.18;;;;;;;;;;5032539;28;20040;-63
2022/07/26 08:00:42;;;;;;;18.55;14.38;;;;;;;;;;5031308;28;20409;-63
2022/07/26 08:03:08;;;;;;;21.58;15.45;;;;;;;;;;5032705;28;20040;-63
2022/07/26 08:05:34;;;;;;;18.55;13.75;;;;;;;;;;5032319;28;20099;-63
2022/07/26 08:08:02;;;;;;;18.92;14.68;;;;;;;;;;5032073;28;20029;-64
2022/07/26 08:10:28;;;;;;;19.02;14.60;;;;;;;;;;5030512;28;20026;-63
2022/07/26 08:12:54;;;;;;;18.67;14.65;;;;;;;;;;5032484;28;20022;-62
2022/07/26 08:15:22;;;;;;;20.45;14.77;;;;;;;;;;5030890;28;20022;-62
2022/07/26 08:17:48;;;;;;;18.58;14.73;;;;;;;;;;5031641;28;20053;-63
2022/07/26 08:20:14;;;;;;;21.27;14.20;;;;;;;;;;5031893;28;20385;-62
2022/07/26 08:22:40;;;;;;;22.40;15.25;;;;;;;;;;5032155;28;20533;-63
2022/07/26 08:25:06;;;;;;;21.33;14.73;;;;;;;;;;5032114;28;20025;-63
2022/07/26 08:27:32;;;;;;;19.58;14.35;;;;;;;;;;5031667;28;20021;-64
2022/07/26 08:29:58;;;;;;;20.10;14.45;;;;;;;;;;5032892;28;20022;-63
2022/07/26 08:32:24;;;;;;;18.80;14.50;;;;;;;;;;5038160;28;20029;-61
2022/07/26 08:34:50;;;;;;;20.52;14.52;;;;;;;;;;5036079;28;20037;-64
2022/07/26 08:37:16;;;;;;;19.70;14.23;;;;;;;;;;5037349;28;20029;-62
2022/07/26 08:39:44;;;;;;;18.52;15.10;;;;;;;;;;5033989;28;20053;-63
2022/07/26 08:42:14;;;;;;;21.95;19.85;;;;;;;;;;5032778;28;20029;-65
2022/07/26 08:44:44;;;;;;;30.52;27.73;;;;;;;;;;5030783;28;20057;-66
2022/07/26 08:47:14;;;;;;;41.45;38.20;;;;;;;;;;5031935;28;20022;-63
2022/07/26 08:49:40;;;;;;;48.33;44.45;;;;;;;;;;5031611;28;20032;-62
2022/07/26 08:52:07;;;;;;;52.10;48.10;;;;;;;;;;5031776;28;20025;-60
2022/07/26 08:54:34;;;;;;;51.53;47.92;;;;;;;;;;5031532;28;20029;-62
2022/07/26 08:57:00;;;;;;;51.55;47.53;;;;;;;;;;5030643;28;20036;-62
2022/07/26 08:59:26;;;;;;;50.58;46.72;;;;;;;;;;5031494;28;20486;-62
2022/07/26 09:01:54;;;;;;;50.65;46.60;;;;;;;;;;5031514;28;20030;-64
2022/07/26 09:04:21;;;;;;;50.50;46.58;;;;;;;;;;5031831;28;20025;-63
2022/07/26 09:07:01;;;;;;;49.50;45.90;;;;;;;;;;5031597;28;20508;-63
2022/07/26 09:09:27;;;;;;;45.70;42.22;;;;;;;;;;5031688;28;20555;-66
2022/07/26 09:11:54;;;;;;;45.72;41.97;;;;;;;;;;5032240;28;20367;-65
2022/07/26 09:14:21;;;;;;;43.53;40.03;;;;;;;;;;5032748;28;20624;-65
2022/07/26 09:16:59;;;;;;;41.58;38.30;;;;;;;;;;5032649;28;20087;-65
2022/07/26 09:19:25;;;;;;;;;;;;;;;;;;5031797;28;20029;-62
2022/07/26 09:21:51;;;;;;;39.53;36.05;;;;;;;;;;5030533;28;19912;-61
2022/07/26 09:24:32;;;;;;;35.80;32.70;;;;;;;;;;5031212;28;20173;-62
2022/07/26 09:26:59;;;;;;;37.10;33.95;;;;;;;;;;5031748;28;20021;-62
2022/07/26 09:29:27;;;;;;;37.15;34.15;;;;;;;;;;5031770;28;20063;-59
2022/07/26 09:32:07;;;;;;;35.97;32.90;;;;;;;;;;5035175;28;20033;-60
2022/07/26 09:34:33;;;;;;;34.03;31.23;;;;;;;;;;5035405;28;20076;-62
2022/07/26 09:36:59;;;;;;;35.00;31.90;;;;;;;;;;5035078;28;20036;-62
2022/07/26 09:39:26;;;;;;;34.40;31.48;;;;;;;;;;5035155;28;20052;-60
2022/07/26 09:41:53;;;;;;;33.65;30.90;;;;;;;;;;5034949;28;20030;-62
2022/07/26 09:44:20;;;;;;;30.30;27.75;;;;;;;;;;5034863;28;20029;-62
2022/07/26 09:46:52;;;;;;;29.58;26.98;;;;;;;;;;5033542;28;20029;-60
2022/07/26 09:49:20;;;;;;;29.90;26.90;;;;;;;;;;5034141;28;20536;-62
2022/07/26 09:51:47;;;;;;;27.27;24.70;;;;;;;;;;5034946;28;20371;-62
2022/07/26 09:54:18;;;;;;;27.30;24.60;;;;;;;;;;5034104;28;20086;-61
2022/07/26 09:56:48;;;;;;;26.50;23.80;;;;;;;;;;5035272;28;20338;-61
2022/07/26 09:59:15;;;;;;;26.42;23.60;;;;;;;;;;5035126;28;20111;-61
2022/07/26 10:01:41;;;;;;;23.85;21.33;;;;;;;;;;5034960;28;20064;-62
2022/07/26 10:04:07;;;;;;;23.25;20.50;;;;;;;;;;5034229;28;20027;-62
2022/07/26 10:06:33;;;;;;;22.55;20.20;;;;;;;;;;5034599;28;20029;-62
2022/07/26 10:09:00;;;;;;;21.55;19.35;;;;;;;;;;5034463;28;20026;-62
2022/07/26 10:11:28;;;;;;;19.27;16.58;;;;;;;;;;5034693;28;20631;-62
2022/07/26 10:13:56;;;;;;;18.23;16.33;;;;;;;;;;5034500;28;20029;-62
2022/07/26 10:16:29;;;;;;;18.48;16.50;;;;;;;;;;5034660;28;20120;-62
2022/07/26 10:18:56;;;;;;;19.10;17.10;;;;;;;;;;5034148;28;20547;-61
2022/07/26 10:21:26;;;;;;;19.60;17.50;;;;;;;;;;5034232;28;20033;-61
2022/07/26 10:23:55;;;;;;;21.00;18.90;;;;;;;;;;5034390;28;20028;-60
2022/07/26 10:26:21;;;;;;;;;;;;;;;;;;5034993;28;20037;-65
2022/07/26 10:28:47;;;;;;;31.02;28.33;;;;;;;;;;5034824;28;19905;-65
2022/07/26 10:31:19;;;;;;;31.08;28.58;;;;;;;;;;5037770;28;20022;-66
2022/07/26 10:33:47;;;;;;;31.73;29.08;;;;;;;;;;5041133;28;20481;-62
2022/07/26 10:36:32;;;;;;;31.30;28.75;;;;;;;;;;5038250;28;20386;-63
2022/07/26 10:39:04;;;;;;;32.72;30.13;;;;;;;;;;5034068;28;20052;-62
2022/07/26 10:41:35;;;;;;;32.67;30.17;;;;;;;;;;5033339;28;20022;-63
2022/07/26 10:44:20;;;;;;;31.52;28.92;;;;;;;;;;5034014;28;20025;-58
2022/07/26 10:46:56;;;;;;;29.05;26.55;;;;;;;;;;5026590;28;20044;-63
2022/07/26 10:49:28;;;;;;;28.10;25.80;;;;;;;;;;5014134;28;20026;-62
2022/07/26 10:52:05;;;;;;;28.75;26.25;;;;;;;;;;5014061;28;20022;-63
2022/07/26 10:54:31;;;;;;;29.73;27.33;;;;;;;;;;5013411;28;20034;-63
2022/07/26 10:56:57;;;;;;;28.92;26.42;;;;;;;;;;5013716;28;20083;-63
2022/07/26 10:59:33;;;;;;;28.00;25.70;;;;;;;;;;5012115;28;20109;-63
2022/07/26 11:01:59;;;;;;;28.77;26.27;;;;;;;;;;5017032;28;20163;-63
2022/07/26 11:04:25;;;;;;;28.63;26.23;;;;;;;;;;5020158;28;20030;-64
2022/07/26 11:06:52;;;;;;;28.23;25.80;;;;;;;;;;5014184;28;20172;-63
2022/07/26 11:09:18;;;;;;;29.13;26.33;;;;;;;;;;5013421;28;20028;-61
2022/07/26 11:11:45;;;;;;;29.55;27.05;;;;;;;;;;5013474;28;20363;-63
2022/07/26 11:14:12;;;;;;;26.65;24.45;;;;;;;;;;5013627;28;20100;-62
2022/07/26 11:16:42;;;;;;;27.67;25.27;;;;;;;;;;5013798;28;20628;-62
2022/07/26 11:19:28;;;;;;;26.75;24.35;;;;;;;;;;5013360;28;20072;-62
2022/07/26 11:22:00;;;;;;;25.20;22.90;;;;;;;;;;5013538;28;20045;-62
2022/07/26 11:24:27;;;;;;;26.10;23.80;;;;;;;;;;5013237;28;20494;-63
2022/07/26 11:26:53;;;;;;;24.58;22.23;;;;;;;;;;5011965;28;20030;-64
2022/07/26 11:29:33;;;;;;;22.17;20.08;;;;;;;;;;5013052;28;20029;-63
2022/07/26 11:31:59;;;;;;;23.02;20.45;;;;;;;;;;5013053;28;20049;-64
2022/07/26 11:34:26;;;;;;;21.65;19.40;;;;;;;;;;5011096;28;20026;-62
2022/07/26 11:36:54;;;;;;;21.75;19.60;;;;;;;;;;5023732;28;20033;-63
2022/07/26 11:39:30;;;;;;;20.27;18.07;;;;;;;;;;5030140;28;20029;-64
2022/07/26 11:42:00;;;;;;;21.02;18.27;;;;;;;;;;5032371;28;20405;-63
2022/07/26 11:44:26;;;;;;;21.45;19.25;;;;;;;;;;5033317;28;20511;-63
2022/07/26 11:46:53;;;;;;;20.25;18.15;;;;;;;;;;5032435;28;20028;-63
2022/07/26 11:49:19;;;;;;;19.30;17.40;;;;;;;;;;5032437;28;20029;-64
2022/07/26 11:51:58;;;;;;;19.40;17.38;;;;;;;;;;5032531;28;20032;-63
2022/07/26 11:54:28;;;;;;;19.60;17.63;;;;;;;;;;5031533;28;20129;-64
2022/07/26 11:56:54;;;;;;;19.35;16.60;;;;;;;;;;5031936;28;20022;-64
2022/07/26 11:59:22;;;;;;;18.52;16.63;;;;;;;;;;5032424;28;20074;-64
2022/07/26 12:01:48;;;;;;;17.58;15.65;;;;;;;;;;5032828;28;20541;-64
2022/07/26 12:04:36;;;;;;;18.45;15.32;;;;;;;;;;5032406;28;20056;-64
2022/07/26 12:07:09;;;;;;;18.25;14.80;;;;;;;;;;5032239;28;20032;-62
2022/07/26 12:09:35;;;;;;;17.25;15.35;;;;;;;;;;5032229;28;20021;-63
2022/07/26 12:12:02;;;;;;;17.67;15.60;;;;;;;;;;5032252;28;20018;-64
2022/07/26 12:14:29;;;;;;;19.63;15.90;;;;;;;;;;5032010;28;20026;-64
2022/07/26 12:16:55;;;;;;;18.98;15.85;;;;;;;;;;5032124;28;20026;-64
2022/07/26 12:19:22;;;;;;;17.40;15.40;;;;;;;;;;5031690;28;20501;-64
2022/07/26 12:21:53;;;;;;;17.23;13.95;;;;;;;;;;5032081;28;20029;-64
2022/07/26 12:24:37;;;;;;;16.98;14.60;;;;;;;;;;5031933;28;20025;-64
2022/07/26 12:27:14;;;;;;;16.88;14.13;;;;;;;;;;5031972;28;20030;-64
2022/07/26 12:29:41;;;;;;;18.02;14.15;;;;;;;;;;5032093;28;20025;-64
2022/07/26 12:32:07;;;;;;;17.77;14.45;;;;;;;;;;5031870;28;20033;-64
2022/07/26 12:34:34;;;;;;;17.30;13.80;;;;;;;;;;5032165;28;20104;-64
2022/07/26 12:37:07;;;;;;;18.25;14.18;;;;;;;;;;5032017;28;20032;-63
2022/07/26 12:39:33;;;;;;;19.70;17.33;;;;;;;;;;5032611;28;20040;-61
2022/07/26 12:41:59;;;;;;;34.75;31.90;;;;;;;;;;5037572;28;20025;-60
2022/07/26 12:44:28;;;;;;;37.88;34.88;;;;;;;;;;5033175;28;20017;-56
2022/07/26 12:46:54;;;;;;;41.00;37.63;;;;;;;;;;5030455;28;20022;-60
2022/07/26 12:49:20;;;;;;;41.33;38.08;;;;;;;;;;5031704;28;20030;-59
2022/07/26 12:51:46;;;;;;;41.70;38.50;;;;;;;;;;5031876;28;20140;-58
2022/07/26 12:54:12;;;;;;;42.97;39.55;;;;;;;;;;5031583;28;20383;-60
2022/07/26 12:56:38;;;;;;;41.17;38.17;;;;;;;;;;5031691;28;20104;-58
2022/07/26 12:59:04;;;;;;;39.75;36.65;;;;;;;;;;5029922;28;20116;-58
2022/07/26 13:01:32;;;;;;;36.95;34.15;;;;;;;;;;5030612;28;20497;-59
2022/07/26 13:03:58;;;;;;;34.15;31.20;;;;;;;;;;5031678;28;20057;-58
2022/07/26 13:06:24;;;;;;;34.33;31.58;;;;;;;;;;5035761;28;20052;-57
2022/07/26 13:08:50;;;;;;;34.58;31.77;;;;;;;;;;5035796;28;20037;-56
2022/07/26 13:11:16;;;;;;;33.88;31.17;;;;;;;;;;5036156;28;20029;-56
2022/07/26 13:13:42;;;;;;;32.50;29.80;;;;;;;;;;5034256;28;20396;-57
2022/07/26 13:16:08;;;;;;;41.10;37.60;;;;;;;;;;5034629;28;20022;-56
2022/07/26 13:18:34;;;;;;;36.55;33.55;;;;;;;;;;5034131;28;20044;-55
2022/07/26 13:21:00;;;;;;;33.65;30.73;;;;;;;;;;5036106;28;20053;-60
2022/07/26 13:23:26;;;;;;;31.88;29.33;;;;;;;;;;5035418;28;20021;-60
2022/07/26 13:25:52;;;;;;;31.05;28.48;;;;;;;;;;5035933;28;20084;-58
2022/07/26 13:28:18;;;;;;;29.20;26.67;;;;;;;;;;5035155;28;20421;-60
2022/07/26 13:30:44;;;;;;;29.20;26.30;;;;;;;;;;5040347;28;20064;-56
2022/07/26 13:33:10;;;;;;;27.80;25.30;;;;;;;;;;5039061;28;20022;-55
2022/07/26 13:35:38;;;;;;;30.20;27.23;;;;;;;;;;5036942;28;20021;-55
2022/07/26 13:38:04;;;;;;;29.13;26.52;;;;;;;;;;5035404;28;20029;-59
2022/07/26 13:40:30;;;;;;;29.25;26.65;;;;;;;;;;5034874;28;20057;-61
2022/07/26 13:42:56;;;;;;;28.80;26.30;;;;;;;;;;5034080;28;20061;-60
2022/07/26 13:45:22;;;;;;;28.25;25.60;;;;;;;;;;5035001;28;20034;-60
2022/07/26 13:47:48;;;;;;;27.92;25.38;;;;;;;;;;5019723;28;20022;-61
2022/07/26 13:50:14;;;;;;;25.83;23.35;;;;;;;;;;5015304;28;20367;-61
2022/07/26 13:52:40;;;;;;;21.20;19.10;;;;;;;;;;5015368;28;20445;-60
2022/07/26 13:55:06;;;;;;;22.30;20.00;;;;;;;;;;5026807;22;20050;-54
2022/07/26 13:57:32;;;;;;;22.75;20.55;;;;;;;;;;4995049;28;20113;-54
2022/07/26 13:59:58;;;;;;;19.83;17.73;;;;;;;;;;4994295;28;20031;-58
2022/07/26 14:02:24;;;;;;;20.02;17.67;;;;;;;;;;4995743;28;20356;-56
2022/07/26 14:04:59;;;;;;;18.49;16.04;;;;;;;;;;4944147;28;10000445;-55
2022/07/26 14:07:25;;;;;;;17.95;15.65;;;;;;;;;;4989388;28;20251;-57
2022/07/26 14:09:51;;;;;;;18.38;16.05;;;;;;;;;;4992262;28;20386;-55
2022/07/26 14:12:17;;;;;;;17.63;15.73;;;;;;;;;;4991291;28;20037;-59
2022/07/26 14:14:43;;;;;;;18.05;16.15;;;;;;;;;;4992198;28;20027;-57
2022/07/26 14:17:09;;;;;;;22.17;15.40;;;;;;;;;;4991177;28;20034;-58
2022/07/26 14:19:35;;;;;;;17.50;14.70;;;;;;;;;;4992292;28;20060;-60